sensor_id;sensor_type;location;lat;lon;timestamp;P1;durP1;ratioP1;P2;durP2;ratioP2
30420;SDS011;17218;54.070;10.012;2023-06-26T00:02:13;3.97;;;3.58;;
30420;SDS011;17218;54.070;10.012;2023-06-26T00:04:39;4.65;;;3.78;;
30420;SDS011;17218;54.070;10.012;2023-06-26T00:07:06;4.10;;;3.55;;
30420;SDS011;17218;54.070;10.012;2023-06-26T00:09:32;3.95;;;3.63;;
30420;SDS011;17218;54.070;10.012;2023-06-26T00:11:59;4.40;;;4.00;;
30420;SDS011;17218;54.070;10.012;2023-06-26T00:14:27;4.65;;;4.18;;
30420;SDS011;17218;54.070;10.012;2023-06-26T00:16:53;4.43;;;3.53;;
30420;SDS011;17218;54.070;10.012;2023-06-26T00:19:20;4.03;;;3.67;;
30420;SDS011;17218;54.070;10.012;2023-06-26T00:21:46;4.40;;;3.90;;
30420;SDS011;17218;54.070;10.012;2023-06-26T00:24:13;4.18;;;3.63;;
30420;SDS011;17218;54.070;10.012;2023-06-26T00:26:40;4.53;;;3.75;;
30420;SDS011;17218;54.070;10.012;2023-06-26T00:29:06;4.05;;;3.63;;
30420;SDS011;17218;54.070;10.012;2023-06-26T00:31:34;4.82;;;4.15;;
30420;SDS011;17218;54.070;10.012;2023-06-26T00:34:01;4.28;;;3.83;;
30420;SDS011;17218;54.070;10.012;2023-06-26T00:36:27;4.38;;;3.97;;
30420;SDS011;17218;54.070;10.012;2023-06-26T00:38:54;4.18;;;3.78;;
30420;SDS011;17218;54.070;10.012;2023-06-26T00:41:20;3.97;;;3.63;;
30420;SDS011;17218;54.070;10.012;2023-06-26T00:43:47;7.57;;;4.25;;
30420;SDS011;17218;54.070;10.012;2023-06-26T00:46:14;4.85;;;3.92;;
30420;SDS011;17218;54.070;10.012;2023-06-26T00:48:42;4.57;;;4.10;;
30420;SDS011;17218;54.070;10.012;2023-06-26T00:51:10;4.10;;;3.63;;
30420;SDS011;17218;54.070;10.012;2023-06-26T00:53:37;4.22;;;3.53;;
30420;SDS011;17218;54.070;10.012;2023-06-26T00:56:04;4.88;;;4.05;;
30420;SDS011;17218;54.070;10.012;2023-06-26T00:58:31;4.82;;;4.43;;
30420;SDS011;17218;54.070;10.012;2023-06-26T01:00:58;4.22;;;3.85;;
30420;SDS011;17218;54.070;10.012;2023-06-26T01:03:25;4.97;;;4.47;;
30420;SDS011;17218;54.070;10.012;2023-06-26T01:05:54;4.65;;;4.25;;
30420;SDS011;17218;54.070;10.012;2023-06-26T01:08:22;4.45;;;4.05;;
30420;SDS011;17218;54.070;10.012;2023-06-26T01:10:50;4.60;;;4.20;;
30420;SDS011;17218;54.070;10.012;2023-06-26T01:13:17;4.90;;;4.40;;
30420;SDS011;17218;54.070;10.012;2023-06-26T01:15:44;4.78;;;4.38;;
30420;SDS011;17218;54.070;10.012;2023-06-26T01:18:12;5.60;;;5.05;;
30420;SDS011;17218;54.070;10.012;2023-06-26T01:20:40;5.13;;;4.68;;
30420;SDS011;17218;54.070;10.012;2023-06-26T01:23:12;5.57;;;4.45;;
30420;SDS011;17218;54.070;10.012;2023-06-26T01:25:47;5.07;;;4.68;;
30420;SDS011;17218;54.070;10.012;2023-06-26T01:28:28;5.18;;;4.65;;
30420;SDS011;17218;54.070;10.012;2023-06-26T01:30:55;5.95;;;5.35;;
30420;SDS011;17218;54.070;10.012;2023-06-26T01:33:23;5.90;;;5.40;;
30420;SDS011;17218;54.070;10.012;2023-06-26T01:35:49;5.50;;;5.00;;
30420;SDS011;17218;54.070;10.012;2023-06-26T01:38:19;6.07;;;5.05;;
30420;SDS011;17218;54.070;10.012;2023-06-26T01:40:48;4.82;;;4.40;;
30420;SDS011;17218;54.070;10.012;2023-06-26T01:43:15;5.18;;;4.68;;
30420;SDS011;17218;54.070;10.012;2023-06-26T01:45:49;7.15;;;5.00;;
30420;SDS011;17218;54.070;10.012;2023-06-26T01:48:17;5.63;;;5.10;;
30420;SDS011;17218;54.070;10.012;2023-06-26T01:50:49;6.63;;;5.60;;
30420;SDS011;17218;54.070;10.012;2023-06-26T01:53:19;5.70;;;5.20;;
30420;SDS011;17218;54.070;10.012;2023-06-26T01:55:50;6.28;;;5.68;;
30420;SDS011;17218;54.070;10.012;2023-06-26T01:58:19;5.80;;;5.30;;
30420;SDS011;17218;54.070;10.012;2023-06-26T02:00:50;6.53;;;5.93;;
30420;SDS011;17218;54.070;10.012;2023-06-26T02:03:16;6.20;;;5.60;;
30420;SDS011;17218;54.070;10.012;2023-06-26T02:05:43;7.32;;;6.07;;
30420;SDS011;17218;54.070;10.012;2023-06-26T02:08:10;5.78;;;5.28;;
30420;SDS011;17218;54.070;10.012;2023-06-26T02:10:36;6.15;;;5.53;;
30420;SDS011;17218;54.070;10.012;2023-06-26T02:13:03;6.30;;;5.68;;
30420;SDS011;17218;54.070;10.012;2023-06-26T02:15:29;6.45;;;5.85;;
30420;SDS011;17218;54.070;10.012;2023-06-26T02:17:57;6.88;;;6.28;;
30420;SDS011;17218;54.070;10.012;2023-06-26T02:20:24;6.43;;;5.82;;
30420;SDS011;17218;54.070;10.012;2023-06-26T02:22:50;6.05;;;5.45;;
30420;SDS011;17218;54.070;10.012;2023-06-26T02:25:17;6.90;;;6.30;;
30420;SDS011;17218;54.070;10.012;2023-06-26T02:27:44;11.05;;;6.75;;
30420;SDS011;17218;54.070;10.012;2023-06-26T02:30:10;7.63;;;6.82;;
30420;SDS011;17218;54.070;10.012;2023-06-26T02:32:37;6.47;;;5.88;;
30420;SDS011;17218;54.070;10.012;2023-06-26T02:35:05;8.10;;;6.43;;
30420;SDS011;17218;54.070;10.012;2023-06-26T02:37:33;7.15;;;6.45;;
30420;SDS011;17218;54.070;10.012;2023-06-26T02:39:59;6.95;;;6.35;;
30420;SDS011;17218;54.070;10.012;2023-06-26T02:42:26;6.57;;;6.00;;
30420;SDS011;17218;54.070;10.012;2023-06-26T02:44:52;7.40;;;6.70;;
30420;SDS011;17218;54.070;10.012;2023-06-26T02:47:18;7.70;;;6.80;;
30420;SDS011;17218;54.070;10.012;2023-06-26T02:49:45;6.93;;;6.32;;
30420;SDS011;17218;54.070;10.012;2023-06-26T02:52:13;7.80;;;7.15;;
30420;SDS011;17218;54.070;10.012;2023-06-26T02:54:39;6.70;;;6.10;;
30420;SDS011;17218;54.070;10.012;2023-06-26T02:57:06;7.25;;;6.63;;
30420;SDS011;17218;54.070;10.012;2023-06-26T02:59:32;7.63;;;6.93;;
30420;SDS011;17218;54.070;10.012;2023-06-26T03:01:59;7.78;;;7.07;;
30420;SDS011;17218;54.070;10.012;2023-06-26T03:04:25;7.60;;;6.90;;
30420;SDS011;17218;54.070;10.012;2023-06-26T03:06:51;6.68;;;6.07;;
30420;SDS011;17218;54.070;10.012;2023-06-26T03:09:19;8.05;;;7.35;;
30420;SDS011;17218;54.070;10.012;2023-06-26T03:11:46;7.82;;;7.13;;
30420;SDS011;17218;54.070;10.012;2023-06-26T03:14:13;7.50;;;6.80;;
30420;SDS011;17218;54.070;10.012;2023-06-26T03:16:39;7.55;;;6.85;;
30420;SDS011;17218;54.070;10.012;2023-06-26T03:19:06;8.25;;;7.32;;
30420;SDS011;17218;54.070;10.012;2023-06-26T03:21:32;7.97;;;7.28;;
30420;SDS011;17218;54.070;10.012;2023-06-26T03:23:59;8.13;;;7.43;;
30420;SDS011;17218;54.070;10.012;2023-06-26T03:26:27;8.60;;;7.78;;
30420;SDS011;17218;54.070;10.012;2023-06-26T03:28:53;8.48;;;7.68;;
30420;SDS011;17218;54.070;10.012;2023-06-26T03:34:42;8.48;;;7.68;;
30420;SDS011;17218;54.070;10.012;2023-06-26T03:37:09;8.18;;;7.38;;
30420;SDS011;17218;54.070;10.012;2023-06-26T03:39:35;8.43;;;7.63;;
30420;SDS011;17218;54.070;10.012;2023-06-26T03:42:03;7.80;;;7.07;;
30420;SDS011;17218;54.070;10.012;2023-06-26T03:44:30;8.18;;;7.47;;
30420;SDS011;17218;54.070;10.012;2023-06-26T03:46:57;8.60;;;7.80;;
30420;SDS011;17218;54.070;10.012;2023-06-26T03:49:23;8.80;;;7.55;;
30420;SDS011;17218;54.070;10.012;2023-06-26T03:51:50;8.75;;;7.95;;
30420;SDS011;17218;54.070;10.012;2023-06-26T03:54:17;8.25;;;7.45;;
30420;SDS011;17218;54.070;10.012;2023-06-26T03:56:43;9.52;;;8.63;;
30420;SDS011;17218;54.070;10.012;2023-06-26T03:59:11;9.43;;;8.05;;
30420;SDS011;17218;54.070;10.012;2023-06-26T04:01:37;8.13;;;7.43;;
30420;SDS011;17218;54.070;10.012;2023-06-26T04:04:04;8.82;;;7.43;;
30420;SDS011;17218;54.070;10.012;2023-06-26T04:06:30;8.30;;;7.60;;
30420;SDS011;17218;54.070;10.012;2023-06-26T04:08:57;8.68;;;7.80;;
30420;SDS011;17218;54.070;10.012;2023-06-26T04:11:24;9.00;;;8.10;;
30420;SDS011;17218;54.070;10.012;2023-06-26T04:13:51;7.97;;;7.28;;
30420;SDS011;17218;54.070;10.012;2023-06-26T04:16:20;8.38;;;7.65;;
30420;SDS011;17218;54.070;10.012;2023-06-26T04:18:49;8.13;;;7.43;;
30420;SDS011;17218;54.070;10.012;2023-06-26T04:21:16;8.68;;;7.32;;
30420;SDS011;17218;54.070;10.012;2023-06-26T04:23:43;8.15;;;7.45;;
30420;SDS011;17218;54.070;10.012;2023-06-26T04:26:09;8.23;;;7.40;;
30420;SDS011;17218;54.070;10.012;2023-06-26T04:28:38;8.25;;;7.38;;
30420;SDS011;17218;54.070;10.012;2023-06-26T04:31:04;7.80;;;7.13;;
30420;SDS011;17218;54.070;10.012;2023-06-26T04:33:32;8.25;;;7.45;;
30420;SDS011;17218;54.070;10.012;2023-06-26T04:36:01;8.15;;;7.35;;
30420;SDS011;17218;54.070;10.012;2023-06-26T04:38:28;7.50;;;6.72;;
30420;SDS011;17218;54.070;10.012;2023-06-26T04:40:55;8.35;;;7.65;;
30420;SDS011;17218;54.070;10.012;2023-06-26T04:43:21;8.05;;;7.35;;
30420;SDS011;17218;54.070;10.012;2023-06-26T04:45:48;7.75;;;7.07;;
30420;SDS011;17218;54.070;10.012;2023-06-26T04:48:14;7.82;;;7.18;;
30420;SDS011;17218;54.070;10.012;2023-06-26T04:50:42;8.18;;;7.00;;
30420;SDS011;17218;54.070;10.012;2023-06-26T04:53:10;8.20;;;7.45;;
30420;SDS011;17218;54.070;10.012;2023-06-26T04:55:37;7.75;;;7.00;;
30420;SDS011;17218;54.070;10.012;2023-06-26T04:58:03;7.78;;;7.07;;
30420;SDS011;17218;54.070;10.012;2023-06-26T05:00:30;8.70;;;7.90;;
30420;SDS011;17218;54.070;10.012;2023-06-26T05:02:58;8.18;;;7.47;;
30420;SDS011;17218;54.070;10.012;2023-06-26T05:05:25;7.43;;;6.75;;
30420;SDS011;17218;54.070;10.012;2023-06-26T05:07:54;7.75;;;7.13;;
30420;SDS011;17218;54.070;10.012;2023-06-26T05:10:21;7.50;;;6.80;;
30420;SDS011;17218;54.070;10.012;2023-06-26T05:12:48;7.65;;;7.05;;
30420;SDS011;17218;54.070;10.012;2023-06-26T05:15:14;7.82;;;7.13;;
30420;SDS011;17218;54.070;10.012;2023-06-26T05:17:41;7.68;;;7.07;;
30420;SDS011;17218;54.070;10.012;2023-06-26T05:20:07;7.40;;;6.80;;
30420;SDS011;17218;54.070;10.012;2023-06-26T05:22:35;7.93;;;7.20;;
30420;SDS011;17218;54.070;10.012;2023-06-26T05:25:05;7.72;;;6.63;;
30420;SDS011;17218;54.070;10.012;2023-06-26T05:27:35;6.95;;;6.35;;
30420;SDS011;17218;54.070;10.012;2023-06-26T05:30:02;7.72;;;6.93;;
30420;SDS011;17218;54.070;10.012;2023-06-26T05:32:29;7.28;;;6.35;;
30420;SDS011;17218;54.070;10.012;2023-06-26T05:34:59;6.82;;;6.22;;
30420;SDS011;17218;54.070;10.012;2023-06-26T05:37:28;7.55;;;6.78;;
30420;SDS011;17218;54.070;10.012;2023-06-26T05:39:57;6.80;;;6.20;;
30420;SDS011;17218;54.070;10.012;2023-06-26T05:42:25;8.73;;;6.30;;
30420;SDS011;17218;54.070;10.012;2023-06-26T05:44:52;7.18;;;6.47;;
30420;SDS011;17218;54.070;10.012;2023-06-26T05:47:19;7.05;;;6.40;;
30420;SDS011;17218;54.070;10.012;2023-06-26T05:49:46;7.18;;;6.47;;
30420;SDS011;17218;54.070;10.012;2023-06-26T05:52:13;6.07;;;5.57;;
30420;SDS011;17218;54.070;10.012;2023-06-26T05:54:40;7.43;;;5.93;;
30420;SDS011;17218;54.070;10.012;2023-06-26T05:57:07;5.97;;;5.47;;
30420;SDS011;17218;54.070;10.012;2023-06-26T05:59:36;6.50;;;5.90;;
30420;SDS011;17218;54.070;10.012;2023-06-26T06:02:05;4.60;;;4.20;;
30420;SDS011;17218;54.070;10.012;2023-06-26T06:04:32;5.82;;;5.32;;
30420;SDS011;17218;54.070;10.012;2023-06-26T06:06:59;5.13;;;4.72;;
30420;SDS011;17218;54.070;10.012;2023-06-26T06:09:26;6.50;;;5.90;;
30420;SDS011;17218;54.070;10.012;2023-06-26T06:11:52;6.32;;;5.82;;
30420;SDS011;17218;54.070;10.012;2023-06-26T06:14:19;6.20;;;5.70;;
30420;SDS011;17218;54.070;10.012;2023-06-26T06:16:47;7.53;;;5.57;;
30420;SDS011;17218;54.070;10.012;2023-06-26T06:19:13;5.55;;;5.15;;
30420;SDS011;17218;54.070;10.012;2023-06-26T06:21:40;6.68;;;6.07;;
30420;SDS011;17218;54.070;10.012;2023-06-26T06:24:08;13.10;;;5.70;;
30420;SDS011;17218;54.070;10.012;2023-06-26T06:26:34;6.65;;;6.05;;
30420;SDS011;17218;54.070;10.012;2023-06-26T06:29:01;6.28;;;5.68;;
30420;SDS011;17218;54.070;10.012;2023-06-26T06:31:27;5.75;;;5.25;;
30420;SDS011;17218;54.070;10.012;2023-06-26T06:33:55;6.22;;;5.70;;
30420;SDS011;17218;54.070;10.012;2023-06-26T06:36:22;9.55;;;5.78;;
30420;SDS011;17218;54.070;10.012;2023-06-26T06:38:48;5.38;;;4.90;;
30420;SDS011;17218;54.070;10.012;2023-06-26T06:41:15;6.18;;;5.65;;
30420;SDS011;17218;54.070;10.012;2023-06-26T06:43:41;6.15;;;5.45;;
30420;SDS011;17218;54.070;10.012;2023-06-26T06:46:08;8.13;;;5.82;;
30420;SDS011;17218;54.070;10.012;2023-06-26T06:48:35;8.13;;;5.85;;
30420;SDS011;17218;54.070;10.012;2023-06-26T06:51:03;9.15;;;5.65;;
30420;SDS011;17218;54.070;10.012;2023-06-26T06:53:29;6.10;;;5.53;;
30420;SDS011;17218;54.070;10.012;2023-06-26T06:55:57;6.20;;;5.60;;
30420;SDS011;17218;54.070;10.012;2023-06-26T06:58:23;7.70;;;6.18;;
30420;SDS011;17218;54.070;10.012;2023-06-26T07:00:49;6.60;;;5.65;;
30420;SDS011;17218;54.070;10.012;2023-06-26T07:03:17;5.35;;;4.95;;
30420;SDS011;17218;54.070;10.012;2023-06-26T07:05:43;7.68;;;5.80;;
30420;SDS011;17218;54.070;10.012;2023-06-26T07:08:12;6.45;;;5.85;;
30420;SDS011;17218;54.070;10.012;2023-06-26T07:10:38;6.97;;;5.78;;
30420;SDS011;17218;54.070;10.012;2023-06-26T07:13:04;6.43;;;5.30;;
30420;SDS011;17218;54.070;10.012;2023-06-26T07:15:31;6.65;;;6.05;;
30420;SDS011;17218;54.070;10.012;2023-06-26T07:17:57;6.95;;;5.80;;
30420;SDS011;17218;54.070;10.012;2023-06-26T07:20:24;6.20;;;5.70;;
30420;SDS011;17218;54.070;10.012;2023-06-26T07:22:50;7.00;;;5.93;;
30420;SDS011;17218;54.070;10.012;2023-06-26T07:25:19;5.75;;;5.25;;
30420;SDS011;17218;54.070;10.012;2023-06-26T07:27:46;6.22;;;5.68;;
30420;SDS011;17218;54.070;10.012;2023-06-26T07:30:12;6.80;;;5.53;;
30420;SDS011;17218;54.070;10.012;2023-06-26T07:32:39;7.03;;;5.80;;
30420;SDS011;17218;54.070;10.012;2023-06-26T07:35:07;6.03;;;5.43;;
30420;SDS011;17218;54.070;10.012;2023-06-26T07:37:33;6.38;;;5.88;;
30420;SDS011;17218;54.070;10.012;2023-06-26T07:40:00;6.10;;;5.50;;
30420;SDS011;17218;54.070;10.012;2023-06-26T07:42:28;6.70;;;4.78;;
30420;SDS011;17218;54.070;10.012;2023-06-26T07:44:55;5.38;;;4.97;;
30420;SDS011;17218;54.070;10.012;2023-06-26T07:47:21;6.85;;;6.15;;
30420;SDS011;17218;54.070;10.012;2023-06-26T07:49:48;6.50;;;5.90;;
30420;SDS011;17218;54.070;10.012;2023-06-26T07:52:14;6.38;;;5.45;;
30420;SDS011;17218;54.070;10.012;2023-06-26T07:54:41;5.78;;;5.32;;
30420;SDS011;17218;54.070;10.012;2023-06-26T07:57:08;5.93;;;5.40;;
30420;SDS011;17218;54.070;10.012;2023-06-26T07:59:37;5.63;;;4.65;;
30420;SDS011;17218;54.070;10.012;2023-06-26T08:02:04;6.78;;;5.60;;
30420;SDS011;17218;54.070;10.012;2023-06-26T08:04:32;6.50;;;5.35;;
30420;SDS011;17218;54.070;10.012;2023-06-26T08:06:59;6.25;;;5.05;;
30420;SDS011;17218;54.070;10.012;2023-06-26T08:09:29;5.93;;;5.40;;
30420;SDS011;17218;54.070;10.012;2023-06-26T08:11:56;7.65;;;5.38;;
30420;SDS011;17218;54.070;10.012;2023-06-26T08:14:23;6.88;;;5.40;;
30420;SDS011;17218;54.070;10.012;2023-06-26T08:16:51;9.05;;;5.50;;
30420;SDS011;17218;54.070;10.012;2023-06-26T08:19:17;8.10;;;5.55;;
30420;SDS011;17218;54.070;10.012;2023-06-26T08:21:44;6.72;;;5.97;;
30420;SDS011;17218;54.070;10.012;2023-06-26T08:24:12;6.88;;;5.90;;
30420;SDS011;17218;54.070;10.012;2023-06-26T08:26:41;10.30;;;6.70;;
30420;SDS011;17218;54.070;10.012;2023-06-26T08:29:07;11.63;;;6.35;;
30420;SDS011;17218;54.070;10.012;2023-06-26T08:31:34;6.30;;;5.70;;
30420;SDS011;17218;54.070;10.012;2023-06-26T08:34:02;9.65;;;6.28;;
30420;SDS011;17218;54.070;10.012;2023-06-26T08:36:29;6.57;;;5.97;;
30420;SDS011;17218;54.070;10.012;2023-06-26T08:38:55;5.70;;;5.20;;
30420;SDS011;17218;54.070;10.012;2023-06-26T08:41:22;8.45;;;6.13;;
30420;SDS011;17218;54.070;10.012;2023-06-26T08:43:49;8.52;;;6.43;;
30420;SDS011;17218;54.070;10.012;2023-06-26T08:46:17;6.90;;;6.22;;
30420;SDS011;17218;54.070;10.012;2023-06-26T08:48:45;6.80;;;6.05;;
30420;SDS011;17218;54.070;10.012;2023-06-26T08:51:17;7.20;;;6.30;;
30420;SDS011;17218;54.070;10.012;2023-06-26T08:53:47;6.43;;;5.82;;
30420;SDS011;17218;54.070;10.012;2023-06-26T08:56:18;6.47;;;5.80;;
30420;SDS011;17218;54.070;10.012;2023-06-26T08:58:47;7.63;;;6.10;;
30420;SDS011;17218;54.070;10.012;2023-06-26T09:01:13;9.77;;;6.18;;
30420;SDS011;17218;54.070;10.012;2023-06-26T09:03:40;7.28;;;6.10;;
30420;SDS011;17218;54.070;10.012;2023-06-26T09:06:07;6.80;;;5.97;;
30420;SDS011;17218;54.070;10.012;2023-06-26T09:08:35;13.20;;;7.03;;
30420;SDS011;17218;54.070;10.012;2023-06-26T09:11:01;9.45;;;6.28;;
30420;SDS011;17218;54.070;10.012;2023-06-26T09:13:28;12.43;;;6.47;;
30420;SDS011;17218;54.070;10.012;2023-06-26T09:15:56;10.63;;;7.05;;
30420;SDS011;17218;54.070;10.012;2023-06-26T09:18:22;7.93;;;7.00;;
30420;SDS011;17218;54.070;10.012;2023-06-26T09:20:49;8.88;;;7.15;;
30420;SDS011;17218;54.070;10.012;2023-06-26T09:23:17;8.68;;;7.13;;
30420;SDS011;17218;54.070;10.012;2023-06-26T09:25:46;7.60;;;6.75;;
30420;SDS011;17218;54.070;10.012;2023-06-26T09:28:13;10.23;;;7.50;;
30420;SDS011;17218;54.070;10.012;2023-06-26T09:30:40;9.45;;;8.00;;
30420;SDS011;17218;54.070;10.012;2023-06-26T09:33:13;10.40;;;8.45;;
30420;SDS011;17218;54.070;10.012;2023-06-26T09:35:40;12.23;;;10.00;;
30420;SDS011;17218;54.070;10.012;2023-06-26T09:38:07;13.38;;;9.60;;
30420;SDS011;17218;54.070;10.012;2023-06-26T09:40:33;13.48;;;9.57;;
30420;SDS011;17218;54.070;10.012;2023-06-26T09:43:04;9.82;;;8.93;;
30420;SDS011;17218;54.070;10.012;2023-06-26T09:45:31;10.82;;;8.13;;
30420;SDS011;17218;54.070;10.012;2023-06-26T09:47:59;9.60;;;7.95;;
30420;SDS011;17218;54.070;10.012;2023-06-26T09:50:27;15.02;;;7.97;;
30420;SDS011;17218;54.070;10.012;2023-06-26T09:52:53;10.73;;;6.35;;
30420;SDS011;17218;54.070;10.012;2023-06-26T09:55:20;8.77;;;6.70;;
30420;SDS011;17218;54.070;10.012;2023-06-26T09:57:47;13.48;;;6.75;;
30420;SDS011;17218;54.070;10.012;2023-06-26T10:00:17;10.75;;;5.93;;
30420;SDS011;17218;54.070;10.012;2023-06-26T10:02:45;7.90;;;5.78;;
30420;SDS011;17218;54.070;10.012;2023-06-26T10:05:11;7.90;;;5.38;;
30420;SDS011;17218;54.070;10.012;2023-06-26T10:07:38;7.60;;;5.13;;
30420;SDS011;17218;54.070;10.012;2023-06-26T10:10:06;7.70;;;5.05;;
30420;SDS011;17218;54.070;10.012;2023-06-26T10:12:34;7.32;;;4.95;;
30420;SDS011;17218;54.070;10.012;2023-06-26T10:15:02;7.68;;;5.18;;
30420;SDS011;17218;54.070;10.012;2023-06-26T10:17:32;7.82;;;5.20;;
30420;SDS011;17218;54.070;10.012;2023-06-26T10:20:01;6.15;;;5.45;;
30420;SDS011;17218;54.070;10.012;2023-06-26T10:22:29;8.15;;;5.50;;
30420;SDS011;17218;54.070;10.012;2023-06-26T10:25:01;7.20;;;5.05;;
30420;SDS011;17218;54.070;10.012;2023-06-26T10:27:34;6.00;;;5.40;;
30420;SDS011;17218;54.070;10.012;2023-06-26T10:30:05;15.15;;;5.57;;
30420;SDS011;17218;54.070;10.012;2023-06-26T10:32:37;11.75;;;5.82;;
30420;SDS011;17218;54.070;10.012;2023-06-26T10:35:05;9.30;;;5.88;;
30420;SDS011;17218;54.070;10.012;2023-06-26T10:37:42;12.35;;;7.10;;
30420;SDS011;17218;54.070;10.012;2023-06-26T10:40:10;10.23;;;6.65;;
30420;SDS011;17218;54.070;10.012;2023-06-26T10:42:37;8.10;;;6.80;;
30420;SDS011;17218;54.070;10.012;2023-06-26T10:45:10;9.15;;;6.82;;
30420;SDS011;17218;54.070;10.012;2023-06-26T10:47:42;9.07;;;7.15;;
30420;SDS011;17218;54.070;10.012;2023-06-26T10:50:22;9.20;;;7.28;;
30420;SDS011;17218;54.070;10.012;2023-06-26T10:55:35;10.05;;;7.35;;
30420;SDS011;17218;54.070;10.012;2023-06-26T10:58:02;8.25;;;6.95;;
30420;SDS011;17218;54.070;10.012;2023-06-26T11:00:28;7.50;;;6.22;;
30420;SDS011;17218;54.070;10.012;2023-06-26T11:02:56;11.05;;;8.23;;
30420;SDS011;17218;54.070;10.012;2023-06-26T11:05:23;8.95;;;7.03;;
30420;SDS011;17218;54.070;10.012;2023-06-26T11:08:02;8.25;;;7.30;;
30420;SDS011;17218;54.070;10.012;2023-06-26T11:10:29;8.80;;;7.05;;
30420;SDS011;17218;54.070;10.012;2023-06-26T11:12:57;8.20;;;6.95;;
30420;SDS011;17218;54.070;10.012;2023-06-26T11:15:26;8.48;;;7.50;;
30420;SDS011;17218;54.070;10.012;2023-06-26T11:17:53;11.77;;;7.68;;
30420;SDS011;17218;54.070;10.012;2023-06-26T11:20:22;8.55;;;7.65;;
30420;SDS011;17218;54.070;10.012;2023-06-26T11:22:48;10.77;;;8.02;;
30420;SDS011;17218;54.070;10.012;2023-06-26T11:25:19;10.95;;;8.20;;
30420;SDS011;17218;54.070;10.012;2023-06-26T11:27:46;10.70;;;7.80;;
30420;SDS011;17218;54.070;10.012;2023-06-26T11:30:22;9.73;;;7.65;;
30420;SDS011;17218;54.070;10.012;2023-06-26T11:32:49;10.13;;;8.27;;
30420;SDS011;17218;54.070;10.012;2023-06-26T11:35:23;12.00;;;9.00;;
30420;SDS011;17218;54.070;10.012;2023-06-26T11:37:54;9.57;;;6.78;;
30420;SDS011;17218;54.070;10.012;2023-06-26T11:40:22;10.20;;;7.15;;
30420;SDS011;17218;54.070;10.012;2023-06-26T11:42:52;13.15;;;7.55;;
30420;SDS011;17218;54.070;10.012;2023-06-26T11:45:18;11.25;;;6.85;;
30420;SDS011;17218;54.070;10.012;2023-06-26T11:47:45;13.13;;;6.60;;
30420;SDS011;17218;54.070;10.012;2023-06-26T11:50:14;14.45;;;6.45;;
30420;SDS011;17218;54.070;10.012;2023-06-26T11:52:43;11.05;;;5.72;;
30420;SDS011;17218;54.070;10.012;2023-06-26T11:55:10;11.00;;;5.72;;
30420;SDS011;17218;54.070;10.012;2023-06-26T11:57:36;9.02;;;4.10;;
30420;SDS011;17218;54.070;10.012;2023-06-26T12:00:12;10.55;;;3.88;;
30420;SDS011;17218;54.070;10.012;2023-06-26T12:02:39;10.70;;;3.63;;
30420;SDS011;17218;54.070;10.012;2023-06-26T12:05:06;11.80;;;2.88;;
30420;SDS011;17218;54.070;10.012;2023-06-26T12:07:33;6.03;;;3.03;;
30420;SDS011;17218;54.070;10.012;2023-06-26T12:10:03;8.45;;;2.67;;
30420;SDS011;17218;54.070;10.012;2023-06-26T12:12:31;7.50;;;2.80;;
30420;SDS011;17218;54.070;10.012;2023-06-26T12:14:58;5.38;;;1.75;;
30420;SDS011;17218;54.070;10.012;2023-06-26T12:17:26;7.05;;;2.53;;
30420;SDS011;17218;54.070;10.012;2023-06-26T12:19:52;3.83;;;1.90;;
30420;SDS011;17218;54.070;10.012;2023-06-26T12:22:19;5.47;;;2.30;;
30420;SDS011;17218;54.070;10.012;2023-06-26T12:24:46;4.32;;;1.92;;
30420;SDS011;17218;54.070;10.012;2023-06-26T12:27:15;4.85;;;2.15;;
30420;SDS011;17218;54.070;10.012;2023-06-26T12:29:46;6.88;;;2.28;;
30420;SDS011;17218;54.070;10.012;2023-06-26T12:32:15;7.22;;;2.28;;
30420;SDS011;17218;54.070;10.012;2023-06-26T12:34:46;5.85;;;2.03;;
30420;SDS011;17218;54.070;10.012;2023-06-26T12:37:14;4.72;;;2.42;;
30420;SDS011;17218;54.070;10.012;2023-06-26T12:39:47;9.82;;;2.45;;
30420;SDS011;17218;54.070;10.012;2023-06-26T12:42:16;8.60;;;3.00;;
30420;SDS011;17218;54.070;10.012;2023-06-26T12:44:44;6.47;;;2.17;;
30420;SDS011;17218;54.070;10.012;2023-06-26T12:47:13;6.88;;;2.38;;
30420;SDS011;17218;54.070;10.012;2023-06-26T12:49:40;6.03;;;2.25;;
30420;SDS011;17218;54.070;10.012;2023-06-26T12:52:08;5.95;;;2.20;;
30420;SDS011;17218;54.070;10.012;2023-06-26T12:54:35;8.02;;;2.53;;
30420;SDS011;17218;54.070;10.012;2023-06-26T12:57:04;6.65;;;2.38;;
30420;SDS011;17218;54.070;10.012;2023-06-26T12:59:32;8.27;;;2.20;;
30420;SDS011;17218;54.070;10.012;2023-06-26T13:01:59;5.35;;;2.30;;
30420;SDS011;17218;54.070;10.012;2023-06-26T13:04:27;6.88;;;1.92;;
30420;SDS011;17218;54.070;10.012;2023-06-26T13:06:54;7.78;;;2.17;;
30420;SDS011;17218;54.070;10.012;2023-06-26T13:09:21;3.22;;;1.77;;
30420;SDS011;17218;54.070;10.012;2023-06-26T13:11:48;4.63;;;2.30;;
30420;SDS011;17218;54.070;10.012;2023-06-26T13:14:14;6.63;;;2.50;;
30420;SDS011;17218;54.070;10.012;2023-06-26T13:16:42;5.40;;;2.25;;
30420;SDS011;17218;54.070;10.012;2023-06-26T13:19:09;9.40;;;2.35;;
30420;SDS011;17218;54.070;10.012;2023-06-26T13:21:35;6.93;;;2.10;;
30420;SDS011;17218;54.070;10.012;2023-06-26T13:24:02;6.60;;;2.30;;
30420;SDS011;17218;54.070;10.012;2023-06-26T13:26:29;5.70;;;1.77;;
30420;SDS011;17218;54.070;10.012;2023-06-26T13:28:56;4.18;;;1.85;;
30420;SDS011;17218;54.070;10.012;2023-06-26T13:31:23;4.95;;;2.10;;
30420;SDS011;17218;54.070;10.012;2023-06-26T13:33:51;4.15;;;1.80;;
30420;SDS011;17218;54.070;10.012;2023-06-26T13:36:19;3.85;;;1.60;;
30420;SDS011;17218;54.070;10.012;2023-06-26T13:38:46;5.05;;;1.98;;
30420;SDS011;17218;54.070;10.012;2023-06-26T13:41:14;3.67;;;1.70;;
30420;SDS011;17218;54.070;10.012;2023-06-26T13:43:41;8.25;;;2.00;;
30420;SDS011;17218;54.070;10.012;2023-06-26T13:46:07;5.22;;;1.90;;
30420;SDS011;17218;54.070;10.012;2023-06-26T13:48:34;5.20;;;2.17;;
30420;SDS011;17218;54.070;10.012;2023-06-26T13:51:01;4.53;;;1.90;;
30420;SDS011;17218;54.070;10.012;2023-06-26T13:53:28;3.70;;;1.67;;
30420;SDS011;17218;54.070;10.012;2023-06-26T13:55:54;4.82;;;2.00;;
30420;SDS011;17218;54.070;10.012;2023-06-26T13:58:21;5.07;;;1.73;;
30420;SDS011;17218;54.070;10.012;2023-06-26T14:00:51;2.17;;;1.40;;
30420;SDS011;17218;54.070;10.012;2023-06-26T14:03:18;4.03;;;1.83;;
30420;SDS011;17218;54.070;10.012;2023-06-26T14:05:44;2.97;;;1.63;;
30420;SDS011;17218;54.070;10.012;2023-06-26T14:08:12;4.63;;;1.58;;
30420;SDS011;17218;54.070;10.012;2023-06-26T14:10:39;3.40;;;1.75;;
30420;SDS011;17218;54.070;10.012;2023-06-26T14:13:06;4.05;;;1.60;;
30420;SDS011;17218;54.070;10.012;2023-06-26T14:15:33;4.10;;;1.67;;
30420;SDS011;17218;54.070;10.012;2023-06-26T14:18:00;2.88;;;1.58;;
30420;SDS011;17218;54.070;10.012;2023-06-26T14:20:28;5.72;;;1.65;;
30420;SDS011;17218;54.070;10.012;2023-06-26T14:22:57;3.95;;;1.70;;
30420;SDS011;17218;54.070;10.012;2023-06-26T14:25:26;6.53;;;1.75;;
30420;SDS011;17218;54.070;10.012;2023-06-26T14:27:53;4.07;;;1.85;;
30420;SDS011;17218;54.070;10.012;2023-06-26T14:30:20;5.18;;;1.73;;
30420;SDS011;17218;54.070;10.012;2023-06-26T14:32:47;2.80;;;1.42;;
30420;SDS011;17218;54.070;10.012;2023-06-26T14:35:13;2.28;;;1.33;;
30420;SDS011;17218;54.070;10.012;2023-06-26T14:37:39;4.75;;;1.45;;
30420;SDS011;17218;54.070;10.012;2023-06-26T14:40:09;4.80;;;1.42;;
30420;SDS011;17218;54.070;10.012;2023-06-26T14:42:37;5.70;;;1.60;;